Portada
METAR-TAF:

METAR-TAF

Aeroports :

Aeroport Internacional de Bahrain

Bahrain, Bahrain

latitud: 26-16N, longitud: 050-39E, altitud: 2 m

Observació

L'informe es va fer fa 26 minuts, a les 13:30 UTC
Vent 10 kt del Nord
Temperatura 33°C
Humitat 34%
Pressió 1007 hPa
Visibilitat: 6000 m
Cel clar

METAR: OBBI 201330Z 01010KT 6000 SKC 33/15 Q1007 NOSIG

Hora: 16:56 (13:56 UTC)

Pronòstic

L'informe es va fer fa 2 hores i 56 minuts, a les 11:00 UTC
Pronòstic vàlid del 20 a les 12 UTC al 21 a les 18 UTC
Vent 10 kt del Nord
Visibilitat: 7000 m
Temporalment
l' 20 a les 12 UTC al 20 a les 14 UTC
Visibilitat: 3000 m
Pols estès
Evolucionant progressivament
l' 20 a les 16 UTC al 20 a les 18 UTC
Vent 5 kt amb direcció variable
Evolucionant progressivament
l' 21 a les 06 UTC al 21 a les 08 UTC
Vent 10 kt del Nord/Nord-Est

TAF: OBBI 201100Z 2012/2118 01010KT 7000 NSC TEMPO 2012/2014 3000 DU BECMG 2016/2018 VRB05KT BECMG 2106/2108 03010KT

Observacions i pronòstics meteorològics de més de 4000 aeroports (METAR i TAF).

Les estacions disponibles són els punts grocs i vermells al mapa.

Posi el ratolí al punt desitjat per veure el nom de l'estació.

Feu clic per veure les observacions i els pronòstics meteorològics.

Per canviar el mapa: feu clic els botons verds amb una creu de color negre per apropar; al botó verd amb un guió per allunyar la imatge; o en les fletxes verdes per a mapes adjacents.


METAR-TAF: